This is the latest recevied weather packets stored in our database for station/object XE2B-20. If no packets are shown the sender has not sent any weather packets the latest 10 day(s).
| Time | Temp. | Humidity | Pressure | Rain* | Wind** | Luminosity | Snow |
|---|---|---|---|---|---|---|---|
| 1788318692 | 16.67° C | 65% | 810.8 hPa | - | - | - | - |
| 1788317185 | 17.78° C | 64% | 810.3 hPa | - | - | - | - |
| 1788315686 | 18.33° C | 63% | 809.7 hPa | - | - | - | - |
| 1788314195 | 18.89° C | 62% | 808.9 hPa | - | - | - | - |
| 1788312686 | 18.89° C | 63% | 808.6 hPa | - | - | - | - |
| 1788309692 | 20.56° C | 63% | 808.1 hPa | - | - | - | - |
| 1788308193 | 21.67° C | 64% | 808 hPa | - | - | - | - |
| 1788306695 | 25.56° C | 59% | 807.6 hPa | - | - | - | - |
| 1788305196 | 26.67° C | 58% | 807.4 hPa | - | - | - | - |
| 1788303698 | 28.89° C | 55% | 807.2 hPa | - | - | - | - |
| 1788300706 | 30° C | 55% | 807.3 hPa | - | - | - | - |
| 1788300654 | 29.44° C | 55% | 807.3 hPa | - | - | - | - |
| 1788299156 | 26.67° C | 61% | 807.7 hPa | - | - | - | - |
| 1788297678 | 28.89° C | 59% | 808 hPa | - | - | - | - |
| 1788296162 | 31.11° C | 57% | 808.3 hPa | - | - | - | - |
| 1788294663 | 29.44° C | 61% | 808.7 hPa | - | - | - | - |
| 1788291666 | 28.33° C | 62% | 809.5 hPa | - | - | - | - |
| 1788290171 | 28.33° C | 61% | 810 hPa | - | - | - | - |
| 1788288673 | 30° C | 58% | 810.3 hPa | - | - | - | - |
| 1788287173 | 28.33° C | 60% | 810.5 hPa | - | - | - | - |
| 1788285674 | 27.78° C | 60% | 810.6 hPa | - | - | - | - |
| 1788284176 | 26.67° C | 61% | 810.6 hPa | - | - | - | - |
| 1788282677 | 26.11° C | 60% | 810.8 hPa | - | - | - | - |
| 1788281178 | 24.44° C | 62% | 810.8 hPa | - | - | - | - |
| 1788279680 | 22.22° C | 64% | 810.9 hPa | - | - | - | - |
* Rain since midnight (hover to see other rain measurements)
** Current wind speed in m/s (hover to see current wind gust speed)